sensor_id;sensor_type;location;lat;lon;timestamp;P1;durP1;ratioP1;P2;durP2;ratioP2
35380;SDS011;21486;51.916;8.378;2022-10-16T00:33:02;10.82;;;6.68;;
35380;SDS011;21486;51.916;8.378;2022-10-16T00:35:27;13.93;;;6.82;;
35380;SDS011;21486;51.916;8.378;2022-10-16T00:37:54;12.05;;;6.75;;
35380;SDS011;21486;51.916;8.378;2022-10-16T00:40:19;12.35;;;6.63;;
35380;SDS011;21486;51.916;8.378;2022-10-16T00:42:45;11.77;;;6.60;;
35380;SDS011;21486;51.916;8.378;2022-10-16T00:45:10;12.20;;;6.17;;
35380;SDS011;21486;51.916;8.378;2022-10-16T00:47:37;12.50;;;6.33;;
35380;SDS011;21486;51.916;8.378;2022-10-16T00:50:09;13.85;;;6.07;;
35380;SDS011;21486;51.916;8.378;2022-10-16T00:52:44;10.98;;;6.40;;
35380;SDS011;21486;51.916;8.378;2022-10-16T00:55:12;13.00;;;6.57;;
35380;SDS011;21486;51.916;8.378;2022-10-16T00:57:38;11.45;;;6.00;;
35380;SDS011;21486;51.916;8.378;2022-10-16T01:00:05;12.65;;;6.55;;
35380;SDS011;21486;51.916;8.378;2022-10-16T01:02:33;12.13;;;6.30;;
35380;SDS011;21486;51.916;8.378;2022-10-16T01:04:58;11.70;;;6.57;;
35380;SDS011;21486;51.916;8.378;2022-10-16T01:13:15;11.27;;;6.53;;
35380;SDS011;21486;51.916;8.378;2022-10-16T01:15:59;14.47;;;6.77;;
35380;SDS011;21486;51.916;8.378;2022-10-16T01:18:43;16.35;;;6.72;;
35380;SDS011;21486;51.916;8.378;2022-10-16T01:21:22;17.80;;;6.47;;
35380;SDS011;21486;51.916;8.378;2022-10-16T01:31:37;13.95;;;6.18;;
35380;SDS011;21486;51.916;8.378;2022-10-16T01:34:13;10.52;;;6.05;;
35380;SDS011;21486;51.916;8.378;2022-10-16T01:36:48;12.57;;;6.50;;
35380;SDS011;21486;51.916;8.378;2022-10-16T01:39:19;11.80;;;6.10;;
35380;SDS011;21486;51.916;8.378;2022-10-16T01:41:49;12.60;;;6.13;;
35380;SDS011;21486;51.916;8.378;2022-10-16T01:44:20;8.75;;;5.95;;
35380;SDS011;21486;51.916;8.378;2022-10-16T01:46:50;10.65;;;6.32;;
35380;SDS011;21486;51.916;8.378;2022-10-16T01:49:18;10.93;;;6.15;;
35380;SDS011;21486;51.916;8.378;2022-10-16T01:51:46;13.75;;;6.03;;
35380;SDS011;21486;51.916;8.378;2022-10-16T01:54:17;12.02;;;6.07;;
35380;SDS011;21486;51.916;8.378;2022-10-16T01:56:45;9.82;;;6.13;;
35380;SDS011;21486;51.916;8.378;2022-10-16T01:59:14;12.98;;;6.25;;
35380;SDS011;21486;51.916;8.378;2022-10-16T02:01:44;13.15;;;6.80;;
35380;SDS011;21486;51.916;8.378;2022-10-16T02:04:15;14.82;;;6.63;;
35380;SDS011;21486;51.916;8.378;2022-10-16T02:06:49;14.23;;;7.63;;
35380;SDS011;21486;51.916;8.378;2022-10-16T02:09:15;12.15;;;6.97;;
35380;SDS011;21486;51.916;8.378;2022-10-16T02:11:41;15.48;;;7.00;;
35380;SDS011;21486;51.916;8.378;2022-10-16T02:14:08;12.82;;;6.63;;
35380;SDS011;21486;51.916;8.378;2022-10-16T02:16:36;12.38;;;6.88;;
35380;SDS011;21486;51.916;8.378;2022-10-16T02:19:04;13.05;;;6.20;;
35380;SDS011;21486;51.916;8.378;2022-10-16T02:21:37;12.30;;;6.17;;
35380;SDS011;21486;51.916;8.378;2022-10-16T02:29:06;10.53;;;6.63;;
35380;SDS011;21486;51.916;8.378;2022-10-16T02:31:40;17.30;;;6.60;;
35380;SDS011;21486;51.916;8.378;2022-10-16T02:34:10;11.68;;;6.40;;
35380;SDS011;21486;51.916;8.378;2022-10-16T02:36:37;12.68;;;6.47;;
35380;SDS011;21486;51.916;8.378;2022-10-16T02:39:04;12.70;;;6.07;;
35380;SDS011;21486;51.916;8.378;2022-10-16T02:41:30;13.13;;;6.30;;
35380;SDS011;21486;51.916;8.378;2022-10-16T02:43:56;15.15;;;6.13;;
35380;SDS011;21486;51.916;8.378;2022-10-16T02:46:22;10.20;;;5.83;;
35380;SDS011;21486;51.916;8.378;2022-10-16T02:48:47;12.18;;;6.43;;
35380;SDS011;21486;51.916;8.378;2022-10-16T02:51:13;13.23;;;6.05;;
35380;SDS011;21486;51.916;8.378;2022-10-16T02:53:39;15.30;;;6.07;;
35380;SDS011;21486;51.916;8.378;2022-10-16T02:56:04;11.77;;;6.37;;
35380;SDS011;21486;51.916;8.378;2022-10-16T02:58:30;12.23;;;5.60;;
35380;SDS011;21486;51.916;8.378;2022-10-16T03:00:56;11.60;;;5.68;;
35380;SDS011;21486;51.916;8.378;2022-10-16T03:03:21;9.55;;;6.10;;
35380;SDS011;21486;51.916;8.378;2022-10-16T03:05:47;10.20;;;5.70;;
35380;SDS011;21486;51.916;8.378;2022-10-16T03:08:13;10.37;;;6.07;;
35380;SDS011;21486;51.916;8.378;2022-10-16T03:10:38;10.03;;;5.50;;
35380;SDS011;21486;51.916;8.378;2022-10-16T03:13:04;11.10;;;5.83;;
35380;SDS011;21486;51.916;8.378;2022-10-16T03:15:30;8.82;;;5.88;;
35380;SDS011;21486;51.916;8.378;2022-10-16T03:17:58;13.20;;;5.90;;
35380;SDS011;21486;51.916;8.378;2022-10-16T03:20:24;9.43;;;5.88;;
35380;SDS011;21486;51.916;8.378;2022-10-16T03:22:51;8.73;;;5.30;;
35380;SDS011;21486;51.916;8.378;2022-10-16T03:25:16;10.57;;;5.60;;
35380;SDS011;21486;51.916;8.378;2022-10-16T03:27:42;10.67;;;5.33;;
35380;SDS011;21486;51.916;8.378;2022-10-16T03:30:07;10.35;;;5.28;;
35380;SDS011;21486;51.916;8.378;2022-10-16T03:32:34;12.93;;;5.05;;
35380;SDS011;21486;51.916;8.378;2022-10-16T03:34:59;9.93;;;5.10;;
35380;SDS011;21486;51.916;8.378;2022-10-16T03:37:25;9.63;;;4.80;;
35380;SDS011;21486;51.916;8.378;2022-10-16T03:39:50;10.73;;;5.17;;
35380;SDS011;21486;51.916;8.378;2022-10-16T03:42:16;9.37;;;4.83;;
35380;SDS011;21486;51.916;8.378;2022-10-16T03:44:42;7.93;;;4.90;;
35380;SDS011;21486;51.916;8.378;2022-10-16T03:47:07;11.27;;;4.93;;
35380;SDS011;21486;51.916;8.378;2022-10-16T03:49:33;8.32;;;4.43;;
35380;SDS011;21486;51.916;8.378;2022-10-16T03:51:58;7.50;;;4.40;;
35380;SDS011;21486;51.916;8.378;2022-10-16T03:54:24;11.47;;;4.50;;
35380;SDS011;21486;51.916;8.378;2022-10-16T03:56:49;9.02;;;4.15;;
35380;SDS011;21486;51.916;8.378;2022-10-16T03:59:15;6.63;;;4.00;;
35380;SDS011;21486;51.916;8.378;2022-10-16T04:01:41;7.03;;;4.20;;
35380;SDS011;21486;51.916;8.378;2022-10-16T04:04:06;7.67;;;4.10;;
35380;SDS011;21486;51.916;8.378;2022-10-16T04:06:32;4.55;;;3.50;;
35380;SDS011;21486;51.916;8.378;2022-10-16T04:08:57;6.22;;;3.65;;
35380;SDS011;21486;51.916;8.378;2022-10-16T04:11:23;9.88;;;4.22;;
35380;SDS011;21486;51.916;8.378;2022-10-16T04:13:49;6.22;;;3.80;;
35380;SDS011;21486;51.916;8.378;2022-10-16T04:16:15;6.07;;;3.60;;
35380;SDS011;21486;51.916;8.378;2022-10-16T04:18:40;5.83;;;3.60;;
35380;SDS011;21486;51.916;8.378;2022-10-16T04:21:06;5.03;;;3.40;;
35380;SDS011;21486;51.916;8.378;2022-10-16T04:23:32;9.23;;;3.80;;
35380;SDS011;21486;51.916;8.378;2022-10-16T04:25:58;8.68;;;3.53;;
35380;SDS011;21486;51.916;8.378;2022-10-16T04:28:24;5.65;;;3.35;;
35380;SDS011;21486;51.916;8.378;2022-10-16T04:30:50;5.67;;;3.43;;
35380;SDS011;21486;51.916;8.378;2022-10-16T04:33:16;5.78;;;3.28;;
35380;SDS011;21486;51.916;8.378;2022-10-16T04:35:41;6.40;;;3.30;;
35380;SDS011;21486;51.916;8.378;2022-10-16T04:38:07;5.13;;;3.10;;
35380;SDS011;21486;51.916;8.378;2022-10-16T04:40:33;5.75;;;2.95;;
35380;SDS011;21486;51.916;8.378;2022-10-16T04:43:01;3.50;;;2.45;;
35380;SDS011;21486;51.916;8.378;2022-10-16T04:45:29;5.47;;;2.72;;
35380;SDS011;21486;51.916;8.378;2022-10-16T04:47:58;4.80;;;2.90;;
35380;SDS011;21486;51.916;8.378;2022-10-16T04:50:24;5.83;;;2.83;;
35380;SDS011;21486;51.916;8.378;2022-10-16T04:52:49;6.10;;;3.40;;
35380;SDS011;21486;51.916;8.378;2022-10-16T04:55:15;7.63;;;3.07;;
35380;SDS011;21486;51.916;8.378;2022-10-16T04:57:41;6.90;;;2.67;;
35380;SDS011;21486;51.916;8.378;2022-10-16T05:00:07;6.30;;;3.00;;
35380;SDS011;21486;51.916;8.378;2022-10-16T05:02:33;5.83;;;2.77;;
35380;SDS011;21486;51.916;8.378;2022-10-16T05:04:59;5.53;;;3.07;;
35380;SDS011;21486;51.916;8.378;2022-10-16T05:07:24;4.50;;;2.70;;
35380;SDS011;21486;51.916;8.378;2022-10-16T05:09:50;6.57;;;2.80;;
35380;SDS011;21486;51.916;8.378;2022-10-16T05:12:15;5.15;;;2.50;;
35380;SDS011;21486;51.916;8.378;2022-10-16T05:14:41;7.45;;;2.72;;
35380;SDS011;21486;51.916;8.378;2022-10-16T05:17:07;4.73;;;2.67;;
35380;SDS011;21486;51.916;8.378;2022-10-16T05:19:32;5.40;;;2.50;;
35380;SDS011;21486;51.916;8.378;2022-10-16T05:21:58;6.75;;;2.78;;
35380;SDS011;21486;51.916;8.378;2022-10-16T05:24:24;3.97;;;2.70;;
35380;SDS011;21486;51.916;8.378;2022-10-16T05:26:49;4.60;;;2.67;;
35380;SDS011;21486;51.916;8.378;2022-10-16T05:29:15;7.78;;;2.78;;
35380;SDS011;21486;51.916;8.378;2022-10-16T05:31:41;4.47;;;2.63;;
35380;SDS011;21486;51.916;8.378;2022-10-16T05:34:06;6.27;;;3.03;;
35380;SDS011;21486;51.916;8.378;2022-10-16T05:36:32;6.15;;;2.95;;
35380;SDS011;21486;51.916;8.378;2022-10-16T05:38:57;6.80;;;2.65;;
35380;SDS011;21486;51.916;8.378;2022-10-16T05:41:23;6.77;;;2.80;;
35380;SDS011;21486;51.916;8.378;2022-10-16T05:43:50;6.88;;;2.90;;
35380;SDS011;21486;51.916;8.378;2022-10-16T05:46:16;5.25;;;2.90;;
35380;SDS011;21486;51.916;8.378;2022-10-16T05:48:42;3.95;;;2.40;;
35380;SDS011;21486;51.916;8.378;2022-10-16T05:51:09;5.93;;;2.53;;
35380;SDS011;21486;51.916;8.378;2022-10-16T05:53:36;4.90;;;2.50;;
35380;SDS011;21486;51.916;8.378;2022-10-16T05:56:03;3.85;;;2.80;;
35380;SDS011;21486;51.916;8.378;2022-10-16T05:58:33;5.03;;;2.60;;
35380;SDS011;21486;51.916;8.378;2022-10-16T06:01:03;7.40;;;2.83;;
35380;SDS011;21486;51.916;8.378;2022-10-16T06:03:32;5.00;;;2.85;;
35380;SDS011;21486;51.916;8.378;2022-10-16T06:05:58;5.55;;;2.85;;
35380;SDS011;21486;51.916;8.378;2022-10-16T06:08:24;3.83;;;2.70;;
35380;SDS011;21486;51.916;8.378;2022-10-16T06:11:00;4.93;;;2.55;;
35380;SDS011;21486;51.916;8.378;2022-10-16T06:13:27;5.50;;;2.60;;
35380;SDS011;21486;51.916;8.378;2022-10-16T06:15:53;8.55;;;2.80;;
35380;SDS011;21486;51.916;8.378;2022-10-16T06:18:21;4.78;;;2.60;;
35380;SDS011;21486;51.916;8.378;2022-10-16T06:20:47;3.63;;;2.40;;
35380;SDS011;21486;51.916;8.378;2022-10-16T06:23:12;4.07;;;2.78;;
35380;SDS011;21486;51.916;8.378;2022-10-16T06:25:38;6.60;;;2.60;;
35380;SDS011;21486;51.916;8.378;2022-10-16T06:28:03;8.40;;;2.67;;
35380;SDS011;21486;51.916;8.378;2022-10-16T06:30:29;7.80;;;2.10;;
35380;SDS011;21486;51.916;8.378;2022-10-16T06:32:54;3.88;;;2.40;;
35380;SDS011;21486;51.916;8.378;2022-10-16T06:35:20;6.28;;;2.20;;
35380;SDS011;21486;51.916;8.378;2022-10-16T06:37:45;5.00;;;2.50;;
35380;SDS011;21486;51.916;8.378;2022-10-16T06:40:11;7.60;;;2.20;;
35380;SDS011;21486;51.916;8.378;2022-10-16T06:42:39;3.38;;;1.80;;
35380;SDS011;21486;51.916;8.378;2022-10-16T06:45:04;3.67;;;2.00;;
35380;SDS011;21486;51.916;8.378;2022-10-16T06:47:30;4.07;;;2.00;;
35380;SDS011;21486;51.916;8.378;2022-10-16T06:49:56;4.20;;;1.90;;
35380;SDS011;21486;51.916;8.378;2022-10-16T06:52:21;3.60;;;1.80;;
35380;SDS011;21486;51.916;8.378;2022-10-16T06:54:47;3.67;;;2.00;;
35380;SDS011;21486;51.916;8.378;2022-10-16T06:57:13;3.95;;;2.05;;
35380;SDS011;21486;51.916;8.378;2022-10-16T06:59:38;4.53;;;1.95;;
35380;SDS011;21486;51.916;8.378;2022-10-16T07:02:04;4.77;;;1.50;;
35380;SDS011;21486;51.916;8.378;2022-10-16T07:04:30;3.33;;;1.80;;
35380;SDS011;21486;51.916;8.378;2022-10-16T07:06:55;8.48;;;2.00;;
35380;SDS011;21486;51.916;8.378;2022-10-16T07:09:21;7.27;;;1.90;;
35380;SDS011;21486;51.916;8.378;2022-10-16T07:11:47;6.20;;;1.83;;
35380;SDS011;21486;51.916;8.378;2022-10-16T07:14:15;5.25;;;2.00;;
35380;SDS011;21486;51.916;8.378;2022-10-16T07:16:41;6.32;;;2.20;;
35380;SDS011;21486;51.916;8.378;2022-10-16T07:19:07;4.20;;;1.80;;
35380;SDS011;21486;51.916;8.378;2022-10-16T07:21:34;5.93;;;1.80;;
35380;SDS011;21486;51.916;8.378;2022-10-16T07:24:04;4.65;;;1.90;;
35380;SDS011;21486;51.916;8.378;2022-10-16T07:26:32;2.72;;;1.70;;
35380;SDS011;21486;51.916;8.378;2022-10-16T07:29:00;3.60;;;1.58;;
35380;SDS011;21486;51.916;8.378;2022-10-16T07:31:26;5.27;;;1.77;;
35380;SDS011;21486;51.916;8.378;2022-10-16T07:33:52;2.03;;;1.40;;
35380;SDS011;21486;51.916;8.378;2022-10-16T07:36:18;2.85;;;1.50;;
35380;SDS011;21486;51.916;8.378;2022-10-16T07:38:45;4.33;;;1.70;;
35380;SDS011;21486;51.916;8.378;2022-10-16T07:41:13;2.90;;;1.60;;
35380;SDS011;21486;51.916;8.378;2022-10-16T07:43:45;5.82;;;1.85;;
35380;SDS011;21486;51.916;8.378;2022-10-16T07:46:12;5.97;;;1.80;;
35380;SDS011;21486;51.916;8.378;2022-10-16T07:48:38;4.00;;;1.77;;
35380;SDS011;21486;51.916;8.378;2022-10-16T07:51:04;4.63;;;1.90;;
35380;SDS011;21486;51.916;8.378;2022-10-16T07:53:31;3.65;;;1.80;;
35380;SDS011;21486;51.916;8.378;2022-10-16T07:55:58;2.40;;;1.63;;
35380;SDS011;21486;51.916;8.378;2022-10-16T07:58:24;3.10;;;1.60;;
35380;SDS011;21486;51.916;8.378;2022-10-16T08:00:50;3.63;;;1.85;;
35380;SDS011;21486;51.916;8.378;2022-10-16T08:03:16;5.50;;;2.03;;
35380;SDS011;21486;51.916;8.378;2022-10-16T08:05:41;4.20;;;1.97;;
35380;SDS011;21486;51.916;8.378;2022-10-16T08:08:10;7.17;;;1.77;;
35380;SDS011;21486;51.916;8.378;2022-10-16T08:10:38;2.13;;;1.50;;
35380;SDS011;21486;51.916;8.378;2022-10-16T08:13:03;3.15;;;1.63;;
35380;SDS011;21486;51.916;8.378;2022-10-16T08:15:29;5.90;;;1.90;;
35380;SDS011;21486;51.916;8.378;2022-10-16T08:17:55;4.57;;;1.30;;
35380;SDS011;21486;51.916;8.378;2022-10-16T08:20:22;2.38;;;1.50;;
35380;SDS011;21486;51.916;8.378;2022-10-16T08:22:48;5.63;;;1.50;;
35380;SDS011;21486;51.916;8.378;2022-10-16T08:25:13;2.35;;;1.33;;
35380;SDS011;21486;51.916;8.378;2022-10-16T08:27:39;3.30;;;1.33;;
35380;SDS011;21486;51.916;8.378;2022-10-16T08:30:04;2.67;;;1.27;;
35380;SDS011;21486;51.916;8.378;2022-10-16T08:32:30;2.42;;;1.40;;
35380;SDS011;21486;51.916;8.378;2022-10-16T08:34:56;5.70;;;1.30;;
35380;SDS011;21486;51.916;8.378;2022-10-16T08:37:21;2.50;;;1.43;;
35380;SDS011;21486;51.916;8.378;2022-10-16T08:39:47;4.40;;;1.23;;
35380;SDS011;21486;51.916;8.378;2022-10-16T08:42:21;2.33;;;1.30;;
35380;SDS011;21486;51.916;8.378;2022-10-16T08:50:30;5.30;;;1.23;;
35380;SDS011;21486;51.916;8.378;2022-10-16T08:52:58;2.05;;;1.10;;
35380;SDS011;21486;51.916;8.378;2022-10-16T08:57:49;2.47;;;1.10;;
35380;SDS011;21486;51.916;8.378;2022-10-16T09:00:15;3.08;;;0.90;;
35380;SDS011;21486;51.916;8.378;2022-10-16T09:16:57;3.90;;;1.00;;
35380;SDS011;21486;51.916;8.378;2022-10-16T09:19:33;3.10;;;1.10;;
35380;SDS011;21486;51.916;8.378;2022-10-16T09:22:11;2.53;;;0.90;;
35380;SDS011;21486;51.916;8.378;2022-10-16T09:24:39;3.35;;;1.00;;
35380;SDS011;21486;51.916;8.378;2022-10-16T09:27:08;2.88;;;0.82;;
35380;SDS011;21486;51.916;8.378;2022-10-16T09:29:36;2.88;;;1.00;;
35380;SDS011;21486;51.916;8.378;2022-10-16T09:32:15;4.85;;;1.25;;
35380;SDS011;21486;51.916;8.378;2022-10-16T09:34:45;4.33;;;1.13;;
35380;SDS011;21486;51.916;8.378;2022-10-16T09:37:16;5.53;;;0.80;;
35380;SDS011;21486;51.916;8.378;2022-10-16T09:39:48;2.50;;;0.80;;
35380;SDS011;21486;51.916;8.378;2022-10-16T09:42:16;3.72;;;1.15;;
35380;SDS011;21486;51.916;8.378;2022-10-16T09:44:48;3.33;;;0.93;;
35380;SDS011;21486;51.916;8.378;2022-10-16T09:47:17;1.98;;;0.80;;
35380;SDS011;21486;51.916;8.378;2022-10-16T09:49:54;2.83;;;0.93;;
35380;SDS011;21486;51.916;8.378;2022-10-16T09:52:22;3.40;;;0.85;;
35380;SDS011;21486;51.916;8.378;2022-10-16T09:54:53;2.75;;;1.00;;
35380;SDS011;21486;51.916;8.378;2022-10-16T09:57:23;4.20;;;0.90;;
35380;SDS011;21486;51.916;8.378;2022-10-16T09:59:55;5.60;;;1.10;;
35380;SDS011;21486;51.916;8.378;2022-10-16T10:02:27;2.08;;;0.80;;
35380;SDS011;21486;51.916;8.378;2022-10-16T10:05:01;4.22;;;0.70;;
35380;SDS011;21486;51.916;8.378;2022-10-16T10:07:33;4.35;;;1.00;;
35380;SDS011;21486;51.916;8.378;2022-10-16T10:10:21;4.38;;;1.02;;
35380;SDS011;21486;51.916;8.378;2022-10-16T10:12:49;2.08;;;1.00;;
35380;SDS011;21486;51.916;8.378;2022-10-16T10:15:15;2.83;;;0.90;;
35380;SDS011;21486;51.916;8.378;2022-10-16T10:22:47;2.72;;;0.98;;
35380;SDS011;21486;51.916;8.378;2022-10-16T10:27:51;3.53;;;0.98;;
35380;SDS011;21486;51.916;8.378;2022-10-16T10:34:04;2.47;;;0.88;;
35380;SDS011;21486;51.916;8.378;2022-10-16T10:36:59;5.82;;;1.08;;
35380;SDS011;21486;51.916;8.378;2022-10-16T10:39:54;2.78;;;1.02;;
35380;SDS011;21486;51.916;8.378;2022-10-16T10:42:45;3.33;;;1.00;;
35380;SDS011;21486;51.916;8.378;2022-10-16T10:45:28;1.80;;;0.70;;
35380;SDS011;21486;51.916;8.378;2022-10-16T10:51:01;2.97;;;0.85;;
35380;SDS011;21486;51.916;8.378;2022-10-16T10:59:16;4.07;;;0.73;;
35380;SDS011;21486;51.916;8.378;2022-10-16T11:01:56;4.60;;;0.90;;
35380;SDS011;21486;51.916;8.378;2022-10-16T11:07:02;2.95;;;1.00;;
35380;SDS011;21486;51.916;8.378;2022-10-16T11:09:47;3.37;;;0.90;;
35380;SDS011;21486;51.916;8.378;2022-10-16T11:15:07;2.85;;;0.95;;
35380;SDS011;21486;51.916;8.378;2022-10-16T11:17:45;5.18;;;1.00;;
35380;SDS011;21486;51.916;8.378;2022-10-16T11:20:16;3.40;;;0.82;;
35380;SDS011;21486;51.916;8.378;2022-10-16T11:25:54;2.67;;;0.70;;
35380;SDS011;21486;51.916;8.378;2022-10-16T11:28:29;4.45;;;0.93;;
35380;SDS011;21486;51.916;8.378;2022-10-16T11:31:05;5.78;;;0.90;;
35380;SDS011;21486;51.916;8.378;2022-10-16T11:39:02;3.38;;;0.70;;
35380;SDS011;21486;51.916;8.378;2022-10-16T11:46:32;4.20;;;0.85;;
35380;SDS011;21486;51.916;8.378;2022-10-16T11:49:20;3.15;;;0.82;;
35380;SDS011;21486;51.916;8.378;2022-10-16T11:52:01;2.83;;;0.80;;
35380;SDS011;21486;51.916;8.378;2022-10-16T11:54:45;2.85;;;0.60;;
35380;SDS011;21486;51.916;8.378;2022-10-16T11:57:17;1.75;;;0.60;;
35380;SDS011;21486;51.916;8.378;2022-10-16T12:02:56;2.83;;;0.80;;
35380;SDS011;21486;51.916;8.378;2022-10-16T12:05:49;3.13;;;0.80;;
35380;SDS011;21486;51.916;8.378;2022-10-16T12:08:33;3.08;;;0.70;;
35380;SDS011;21486;51.916;8.378;2022-10-16T12:11:20;2.50;;;0.80;;
35380;SDS011;21486;51.916;8.378;2022-10-16T12:16:58;3.60;;;0.98;;
35380;SDS011;21486;51.916;8.378;2022-10-16T12:19:25;3.47;;;1.10;;
35380;SDS011;21486;51.916;8.378;2022-10-16T12:22:01;2.97;;;0.90;;
35380;SDS011;21486;51.916;8.378;2022-10-16T12:27:06;4.75;;;1.08;;
35380;SDS011;21486;51.916;8.378;2022-10-16T12:29:58;4.15;;;0.70;;
35380;SDS011;21486;51.916;8.378;2022-10-16T12:32:32;3.25;;;1.08;;
35380;SDS011;21486;51.916;8.378;2022-10-16T12:35:00;2.35;;;0.93;;
35380;SDS011;21486;51.916;8.378;2022-10-16T12:37:33;3.90;;;0.90;;
35380;SDS011;21486;51.916;8.378;2022-10-16T12:40:11;3.10;;;1.00;;
35380;SDS011;21486;51.916;8.378;2022-10-16T12:42:39;3.22;;;0.90;;
35380;SDS011;21486;51.916;8.378;2022-10-16T12:47:52;3.80;;;1.08;;
35380;SDS011;21486;51.916;8.378;2022-10-16T12:52:59;3.40;;;0.98;;
35380;SDS011;21486;51.916;8.378;2022-10-16T12:55:26;4.03;;;1.08;;
35380;SDS011;21486;51.916;8.378;2022-10-16T12:58:12;2.20;;;0.77;;
35380;SDS011;21486;51.916;8.378;2022-10-16T13:01:07;2.13;;;1.17;;
35380;SDS011;21486;51.916;8.378;2022-10-16T13:06:42;3.75;;;0.95;;
35380;SDS011;21486;51.916;8.378;2022-10-16T13:12:15;3.73;;;0.80;;
35380;SDS011;21486;51.916;8.378;2022-10-16T13:20:18;7.13;;;1.10;;
35380;SDS011;21486;51.916;8.378;2022-10-16T13:25:29;2.45;;;0.77;;
35380;SDS011;21486;51.916;8.378;2022-10-16T13:28:11;2.70;;;0.90;;
35380;SDS011;21486;51.916;8.378;2022-10-16T13:33:13;3.15;;;1.05;;
35380;SDS011;21486;51.916;8.378;2022-10-16T13:35:47;2.30;;;0.93;;
35380;SDS011;21486;51.916;8.378;2022-10-16T13:38:17;7.38;;;1.58;;
35380;SDS011;21486;51.916;8.378;2022-10-16T13:40:55;4.20;;;1.00;;
35380;SDS011;21486;51.916;8.378;2022-10-16T13:43:43;4.75;;;1.05;;
35380;SDS011;21486;51.916;8.378;2022-10-16T13:46:18;3.42;;;1.10;;
35380;SDS011;21486;51.916;8.378;2022-10-16T13:48:55;4.65;;;0.90;;
35380;SDS011;21486;51.916;8.378;2022-10-16T13:51:22;3.67;;;0.90;;
35380;SDS011;21486;51.916;8.378;2022-10-16T13:53:48;2.80;;;1.05;;
35380;SDS011;21486;51.916;8.378;2022-10-16T13:56:15;4.75;;;1.00;;
35380;SDS011;21486;51.916;8.378;2022-10-16T13:58:42;1.20;;;0.90;;
35380;SDS011;21486;51.916;8.378;2022-10-16T14:01:26;2.53;;;0.73;;
35380;SDS011;21486;51.916;8.378;2022-10-16T14:03:59;5.57;;;0.82;;
35380;SDS011;21486;51.916;8.378;2022-10-16T14:06:30;4.20;;;0.77;;
35380;SDS011;21486;51.916;8.378;2022-10-16T14:09:07;3.15;;;0.68;;
35380;SDS011;21486;51.916;8.378;2022-10-16T14:11:55;4.55;;;1.08;;
35380;SDS011;21486;51.916;8.378;2022-10-16T14:14:27;2.50;;;0.60;;
35380;SDS011;21486;51.916;8.378;2022-10-16T14:16:59;2.05;;;0.70;;
35380;SDS011;21486;51.916;8.378;2022-10-16T14:19:25;2.30;;;0.85;;
35380;SDS011;21486;51.916;8.378;2022-10-16T14:21:53;1.60;;;0.75;;
35380;SDS011;21486;51.916;8.378;2022-10-16T14:24:24;4.65;;;0.80;;
35380;SDS011;21486;51.916;8.378;2022-10-16T14:26:58;4.00;;;0.90;;
35380;SDS011;21486;51.916;8.378;2022-10-16T14:29:25;3.92;;;1.00;;
35380;SDS011;21486;51.916;8.378;2022-10-16T14:31:59;3.40;;;0.73;;
35380;SDS011;21486;51.916;8.378;2022-10-16T14:34:31;5.00;;;0.90;;
35380;SDS011;21486;51.916;8.378;2022-10-16T14:37:06;2.17;;;0.80;;
35380;SDS011;21486;51.916;8.378;2022-10-16T14:39:40;3.42;;;1.00;;
35380;SDS011;21486;51.916;8.378;2022-10-16T14:42:11;2.75;;;0.90;;
35380;SDS011;21486;51.916;8.378;2022-10-16T14:44:41;3.88;;;1.00;;
35380;SDS011;21486;51.916;8.378;2022-10-16T14:47:07;3.03;;;1.00;;
35380;SDS011;21486;51.916;8.378;2022-10-16T14:49:38;2.40;;;0.82;;
35380;SDS011;21486;51.916;8.378;2022-10-16T14:52:07;2.87;;;1.00;;
35380;SDS011;21486;51.916;8.378;2022-10-16T14:54:35;3.90;;;1.00;;
35380;SDS011;21486;51.916;8.378;2022-10-16T14:57:00;4.97;;;1.80;;
35380;SDS011;21486;51.916;8.378;2022-10-16T14:59:35;4.78;;;2.28;;
35380;SDS011;21486;51.916;8.378;2022-10-16T15:02:27;2.03;;;1.13;;
35380;SDS011;21486;51.916;8.378;2022-10-16T15:04:56;3.45;;;1.10;;
35380;SDS011;21486;51.916;8.378;2022-10-16T15:07:22;3.50;;;1.10;;
35380;SDS011;21486;51.916;8.378;2022-10-16T15:09:48;3.37;;;1.00;;
35380;SDS011;21486;51.916;8.378;2022-10-16T15:12:14;5.90;;;1.03;;
35380;SDS011;21486;51.916;8.378;2022-10-16T15:14:40;3.33;;;1.23;;
35380;SDS011;21486;51.916;8.378;2022-10-16T15:17:08;3.97;;;1.23;;
35380;SDS011;21486;51.916;8.378;2022-10-16T15:19:35;4.93;;;1.40;;
35380;SDS011;21486;51.916;8.378;2022-10-16T15:22:01;4.43;;;1.00;;
35380;SDS011;21486;51.916;8.378;2022-10-16T15:24:27;3.13;;;1.00;;
35380;SDS011;21486;51.916;8.378;2022-10-16T15:26:53;4.53;;;1.20;;
35380;SDS011;21486;51.916;8.378;2022-10-16T15:29:19;4.63;;;1.07;;
35380;SDS011;21486;51.916;8.378;2022-10-16T15:31:44;3.83;;;1.10;;
35380;SDS011;21486;51.916;8.378;2022-10-16T15:34:12;3.50;;;1.05;;
35380;SDS011;21486;51.916;8.378;2022-10-16T15:36:38;2.17;;;0.90;;
35380;SDS011;21486;51.916;8.378;2022-10-16T15:39:06;4.53;;;1.40;;
35380;SDS011;21486;51.916;8.378;2022-10-16T15:41:41;3.47;;;1.13;;
35380;SDS011;21486;51.916;8.378;2022-10-16T15:44:14;4.35;;;1.25;;
35380;SDS011;21486;51.916;8.378;2022-10-16T15:46:40;5.60;;;1.60;;
35380;SDS011;21486;51.916;8.378;2022-10-16T15:49:06;6.07;;;1.57;;
35380;SDS011;21486;51.916;8.378;2022-10-16T15:51:32;4.45;;;1.75;;
35380;SDS011;21486;51.916;8.378;2022-10-16T15:53:59;7.07;;;2.35;;
35380;SDS011;21486;51.916;8.378;2022-10-16T15:56:29;5.60;;;3.03;;
35380;SDS011;21486;51.916;8.378;2022-10-16T15:58:58;7.27;;;2.87;;
35380;SDS011;21486;51.916;8.378;2022-10-16T16:01:25;5.50;;;2.97;;
35380;SDS011;21486;51.916;8.378;2022-10-16T16:03:52;7.27;;;2.70;;
35380;SDS011;21486;51.916;8.378;2022-10-16T16:06:19;7.13;;;2.22;;
35380;SDS011;21486;51.916;8.378;2022-10-16T16:08:44;7.53;;;2.20;;
35380;SDS011;21486;51.916;8.378;2022-10-16T16:11:13;5.72;;;2.30;;
35380;SDS011;21486;51.916;8.378;2022-10-16T16:13:40;8.65;;;4.82;;
35380;SDS011;21486;51.916;8.378;2022-10-16T16:16:07;9.00;;;5.13;;
35380;SDS011;21486;51.916;8.378;2022-10-16T16:18:34;13.20;;;5.05;;
35380;SDS011;21486;51.916;8.378;2022-10-16T16:21:00;10.45;;;4.90;;
35380;SDS011;21486;51.916;8.378;2022-10-16T16:23:26;8.88;;;4.38;;
35380;SDS011;21486;51.916;8.378;2022-10-16T16:26:12;9.65;;;4.85;;
35380;SDS011;21486;51.916;8.378;2022-10-16T16:28:40;13.13;;;6.60;;
35380;SDS011;21486;51.916;8.378;2022-10-16T16:31:07;10.38;;;4.57;;
35380;SDS011;21486;51.916;8.378;2022-10-16T16:33:33;8.18;;;4.10;;
35380;SDS011;21486;51.916;8.378;2022-10-16T16:35:59;10.48;;;4.00;;
35380;SDS011;21486;51.916;8.378;2022-10-16T16:38:31;10.43;;;4.37;;
35380;SDS011;21486;51.916;8.378;2022-10-16T16:40:57;10.60;;;4.53;;
35380;SDS011;21486;51.916;8.378;2022-10-16T16:43:23;9.70;;;4.22;;
35380;SDS011;21486;51.916;8.378;2022-10-16T16:45:50;6.60;;;2.60;;
35380;SDS011;21486;51.916;8.378;2022-10-16T16:48:16;5.00;;;2.30;;
35380;SDS011;21486;51.916;8.378;2022-10-16T16:50:42;6.60;;;2.63;;
35380;SDS011;21486;51.916;8.378;2022-10-16T16:53:07;7.22;;;2.85;;
35380;SDS011;21486;51.916;8.378;2022-10-16T16:55:33;7.50;;;2.53;;
35380;SDS011;21486;51.916;8.378;2022-10-16T16:57:59;11.13;;;2.23;;
35380;SDS011;21486;51.916;8.378;2022-10-16T17:00:25;6.80;;;2.40;;
35380;SDS011;21486;51.916;8.378;2022-10-16T17:02:50;5.05;;;2.55;;
35380;SDS011;21486;51.916;8.378;2022-10-16T17:05:16;4.78;;;2.80;;
35380;SDS011;21486;51.916;8.378;2022-10-16T17:07:43;5.90;;;3.50;;
35380;SDS011;21486;51.916;8.378;2022-10-16T17:10:09;7.47;;;3.65;;
35380;SDS011;21486;51.916;8.378;2022-10-16T17:12:34;6.75;;;3.40;;
35380;SDS011;21486;51.916;8.378;2022-10-16T17:15:00;6.53;;;3.47;;
35380;SDS011;21486;51.916;8.378;2022-10-16T17:17:26;9.90;;;4.10;;
35380;SDS011;21486;51.916;8.378;2022-10-16T17:19:52;7.37;;;3.90;;